sensor_id;sensor_type;location;lat;lon;timestamp;P1;durP1;ratioP1;P2;durP2;ratioP2
75603;SDS011;64187;51.010;13.792;2023-06-22T00:03:08;8.18;;;6.75;;
75603;SDS011;64187;51.010;13.792;2023-06-22T00:08:07;10.57;;;7.10;;
75603;SDS011;64187;51.010;13.792;2023-06-22T00:13:07;8.77;;;6.50;;
75603;SDS011;64187;51.010;13.792;2023-06-22T00:18:07;8.98;;;6.60;;
75603;SDS011;64187;51.010;13.792;2023-06-22T00:23:07;9.23;;;7.75;;
75603;SDS011;64187;51.010;13.792;2023-06-22T00:28:09;9.75;;;7.03;;
75603;SDS011;64187;51.010;13.792;2023-06-22T00:33:08;9.57;;;6.63;;
75603;SDS011;64187;51.010;13.792;2023-06-22T00:38:07;9.52;;;7.60;;
75603;SDS011;64187;51.010;13.792;2023-06-22T00:43:07;10.00;;;7.78;;
75603;SDS011;64187;51.010;13.792;2023-06-22T00:48:06;9.88;;;7.63;;
75603;SDS011;64187;51.010;13.792;2023-06-22T00:53:07;10.30;;;7.43;;
75603;SDS011;64187;51.010;13.792;2023-06-22T00:58:09;9.05;;;7.18;;
75603;SDS011;64187;51.010;13.792;2023-06-22T01:03:10;9.20;;;7.13;;
75603;SDS011;64187;51.010;13.792;2023-06-22T01:18:40;8.63;;;6.80;;
75603;SDS011;64187;51.010;13.792;2023-06-22T01:23:50;8.85;;;7.05;;
75603;SDS011;64187;51.010;13.792;2023-06-22T01:29:10;9.13;;;7.22;;
75603;SDS011;64187;51.010;13.792;2023-06-22T01:34:12;11.50;;;8.00;;
75603;SDS011;64187;51.010;13.792;2023-06-22T01:39:11;10.57;;;7.38;;
75603;SDS011;64187;51.010;13.792;2023-06-22T01:44:12;11.18;;;8.07;;
75603;SDS011;64187;51.010;13.792;2023-06-22T01:49:13;9.65;;;7.50;;
75603;SDS011;64187;51.010;13.792;2023-06-22T01:54:12;10.63;;;7.32;;
75603;SDS011;64187;51.010;13.792;2023-06-22T01:59:15;11.13;;;7.95;;
75603;SDS011;64187;51.010;13.792;2023-06-22T02:04:24;9.10;;;7.53;;
75603;SDS011;64187;51.010;13.792;2023-06-22T02:09:28;12.48;;;7.95;;
75603;SDS011;64187;51.010;13.792;2023-06-22T02:14:29;10.77;;;8.18;;
75603;SDS011;64187;51.010;13.792;2023-06-22T02:19:28;10.05;;;7.63;;
75603;SDS011;64187;51.010;13.792;2023-06-22T02:24:31;10.82;;;7.95;;
75603;SDS011;64187;51.010;13.792;2023-06-22T02:29:32;11.35;;;7.60;;
75603;SDS011;64187;51.010;13.792;2023-06-22T02:34:31;10.70;;;7.50;;
75603;SDS011;64187;51.010;13.792;2023-06-22T02:39:30;9.70;;;7.18;;
75603;SDS011;64187;51.010;13.792;2023-06-22T02:44:29;9.68;;;7.50;;
75603;SDS011;64187;51.010;13.792;2023-06-22T02:49:28;10.18;;;8.20;;
75603;SDS011;64187;51.010;13.792;2023-06-22T02:54:27;11.30;;;7.78;;
75603;SDS011;64187;51.010;13.792;2023-06-22T02:59:26;10.27;;;8.02;;
75603;SDS011;64187;51.010;13.792;2023-06-22T03:04:32;11.82;;;7.57;;
75603;SDS011;64187;51.010;13.792;2023-06-22T03:09:31;9.55;;;7.72;;
75603;SDS011;64187;51.010;13.792;2023-06-22T03:14:30;10.10;;;7.50;;
75603;SDS011;64187;51.010;13.792;2023-06-22T03:19:29;9.68;;;7.80;;
75603;SDS011;64187;51.010;13.792;2023-06-22T03:24:29;10.60;;;7.88;;
75603;SDS011;64187;51.010;13.792;2023-06-22T03:29:28;10.80;;;7.68;;
75603;SDS011;64187;51.010;13.792;2023-06-22T03:34:29;13.27;;;8.63;;
75603;SDS011;64187;51.010;13.792;2023-06-22T03:39:33;10.35;;;7.72;;
75603;SDS011;64187;51.010;13.792;2023-06-22T03:44:31;11.40;;;8.20;;
75603;SDS011;64187;51.010;13.792;2023-06-22T03:49:30;12.25;;;8.40;;
75603;SDS011;64187;51.010;13.792;2023-06-22T03:54:29;12.07;;;8.40;;
75603;SDS011;64187;51.010;13.792;2023-06-22T03:59:28;11.73;;;8.38;;
75603;SDS011;64187;51.010;13.792;2023-06-22T04:04:27;15.02;;;9.00;;
75603;SDS011;64187;51.010;13.792;2023-06-22T04:09:26;13.73;;;7.85;;
75603;SDS011;64187;51.010;13.792;2023-06-22T04:14:25;12.27;;;8.73;;
75603;SDS011;64187;51.010;13.792;2023-06-22T04:19:24;9.00;;;8.02;;
75603;SDS011;64187;51.010;13.792;2023-06-22T04:24:23;11.45;;;8.63;;
75603;SDS011;64187;51.010;13.792;2023-06-22T04:29:22;13.75;;;8.77;;
75603;SDS011;64187;51.010;13.792;2023-06-22T04:34:28;7.85;;;5.57;;
75603;SDS011;64187;51.010;13.792;2023-06-22T04:39:28;11.75;;;8.20;;
75603;SDS011;64187;51.010;13.792;2023-06-22T04:44:26;12.70;;;9.27;;
75603;SDS011;64187;51.010;13.792;2023-06-22T04:49:26;12.85;;;7.93;;
75603;SDS011;64187;51.010;13.792;2023-06-22T04:54:31;11.90;;;8.45;;
75603;SDS011;64187;51.010;13.792;2023-06-22T04:59:31;11.07;;;8.38;;
75603;SDS011;64187;51.010;13.792;2023-06-22T05:04:30;11.38;;;8.07;;
75603;SDS011;64187;51.010;13.792;2023-06-22T05:09:34;10.18;;;7.45;;
75603;SDS011;64187;51.010;13.792;2023-06-22T05:14:33;10.63;;;8.00;;
75603;SDS011;64187;51.010;13.792;2023-06-22T05:19:32;16.58;;;7.88;;
75603;SDS011;64187;51.010;13.792;2023-06-22T05:24:33;10.73;;;8.57;;
75603;SDS011;64187;51.010;13.792;2023-06-22T05:29:31;10.32;;;7.80;;
75603;SDS011;64187;51.010;13.792;2023-06-22T05:34:30;11.18;;;7.88;;
75603;SDS011;64187;51.010;13.792;2023-06-22T05:39:29;9.60;;;7.95;;
75603;SDS011;64187;51.010;13.792;2023-06-22T05:44:28;11.35;;;8.60;;
75603;SDS011;64187;51.010;13.792;2023-06-22T05:49:27;10.85;;;7.80;;
75603;SDS011;64187;51.010;13.792;2023-06-22T05:54:31;10.57;;;8.55;;
75603;SDS011;64187;51.010;13.792;2023-06-22T05:59:30;9.48;;;7.78;;
75603;SDS011;64187;51.010;13.792;2023-06-22T06:04:28;10.32;;;8.70;;
75603;SDS011;64187;51.010;13.792;2023-06-22T06:09:28;12.05;;;8.52;;
75603;SDS011;64187;51.010;13.792;2023-06-22T06:14:26;12.48;;;8.45;;
75603;SDS011;64187;51.010;13.792;2023-06-22T06:19:25;10.43;;;7.85;;
75603;SDS011;64187;51.010;13.792;2023-06-22T06:24:24;10.25;;;7.65;;
75603;SDS011;64187;51.010;13.792;2023-06-22T06:29:23;9.98;;;8.02;;
75603;SDS011;64187;51.010;13.792;2023-06-22T06:34:22;12.35;;;8.40;;
75603;SDS011;64187;51.010;13.792;2023-06-22T06:39:21;12.20;;;8.82;;
75603;SDS011;64187;51.010;13.792;2023-06-22T06:44:20;11.63;;;8.02;;
75603;SDS011;64187;51.010;13.792;2023-06-22T06:49:19;12.10;;;8.40;;
75603;SDS011;64187;51.010;13.792;2023-06-22T06:54:18;11.68;;;8.35;;
75603;SDS011;64187;51.010;13.792;2023-06-22T06:59:19;11.65;;;8.07;;
75603;SDS011;64187;51.010;13.792;2023-06-22T07:04:18;11.57;;;8.68;;
75603;SDS011;64187;51.010;13.792;2023-06-22T07:09:17;11.07;;;8.20;;
75603;SDS011;64187;51.010;13.792;2023-06-22T07:14:17;11.48;;;9.60;;
75603;SDS011;64187;51.010;13.792;2023-06-22T07:19:16;10.60;;;8.70;;
75603;SDS011;64187;51.010;13.792;2023-06-22T07:24:15;9.90;;;8.85;;
75603;SDS011;64187;51.010;13.792;2023-06-22T07:34:16;13.13;;;8.70;;
75603;SDS011;64187;51.010;13.792;2023-06-22T07:39:16;13.43;;;9.45;;
75603;SDS011;64187;51.010;13.792;2023-06-22T07:44:14;11.45;;;9.50;;
75603;SDS011;64187;51.010;13.792;2023-06-22T07:49:13;12.43;;;8.88;;
75603;SDS011;64187;51.010;13.792;2023-06-22T07:54:12;9.80;;;8.65;;
75603;SDS011;64187;51.010;13.792;2023-06-22T07:59:14;11.20;;;9.50;;
75603;SDS011;64187;51.010;13.792;2023-06-22T08:04:13;11.15;;;9.90;;
75603;SDS011;64187;51.010;13.792;2023-06-22T08:09:12;10.20;;;9.00;;
75603;SDS011;64187;51.010;13.792;2023-06-22T08:14:11;9.82;;;8.82;;
75603;SDS011;64187;51.010;13.792;2023-06-22T08:19:10;10.50;;;9.35;;
75603;SDS011;64187;51.010;13.792;2023-06-22T08:24:08;8.80;;;7.90;;
75603;SDS011;64187;51.010;13.792;2023-06-22T08:29:07;11.00;;;8.15;;
75603;SDS011;64187;51.010;13.792;2023-06-22T08:34:06;8.43;;;7.63;;
75603;SDS011;64187;51.010;13.792;2023-06-22T08:39:05;9.70;;;8.48;;
75603;SDS011;64187;51.010;13.792;2023-06-22T08:44:04;9.90;;;7.97;;
75603;SDS011;64187;51.010;13.792;2023-06-22T08:49:03;9.15;;;8.23;;
75603;SDS011;64187;51.010;13.792;2023-06-22T08:54:03;9.52;;;8.52;;
75603;SDS011;64187;51.010;13.792;2023-06-22T08:59:01;9.48;;;8.52;;
75603;SDS011;64187;51.010;13.792;2023-06-22T09:04:00;10.00;;;9.10;;
75603;SDS011;64187;51.010;13.792;2023-06-22T09:08:59;9.48;;;8.43;;
75603;SDS011;64187;51.010;13.792;2023-06-22T09:13:58;10.68;;;9.65;;
75603;SDS011;64187;51.010;13.792;2023-06-22T09:18:58;8.88;;;8.00;;
75603;SDS011;64187;51.010;13.792;2023-06-22T09:23:57;9.23;;;8.23;;
75603;SDS011;64187;51.010;13.792;2023-06-22T09:28:56;9.77;;;8.88;;
75603;SDS011;64187;51.010;13.792;2023-06-22T09:33:56;9.65;;;8.75;;
75603;SDS011;64187;51.010;13.792;2023-06-22T09:38:55;9.35;;;8.45;;
75603;SDS011;64187;51.010;13.792;2023-06-22T09:43:54;9.55;;;8.60;;
75603;SDS011;64187;51.010;13.792;2023-06-22T09:48:54;9.48;;;8.52;;
75603;SDS011;64187;51.010;13.792;2023-06-22T09:53:53;13.77;;;8.90;;
75603;SDS011;64187;51.010;13.792;2023-06-22T09:58:53;10.30;;;9.07;;
75603;SDS011;64187;51.010;13.792;2023-06-22T10:03:57;8.73;;;7.93;;
75603;SDS011;64187;51.010;13.792;2023-06-22T10:08:57;8.85;;;8.05;;
75603;SDS011;64187;51.010;13.792;2023-06-22T10:13:56;9.35;;;8.50;;
75603;SDS011;64187;51.010;13.792;2023-06-22T10:18:55;11.43;;;7.93;;
75603;SDS011;64187;51.010;13.792;2023-06-22T10:23:54;9.63;;;8.23;;
75603;SDS011;64187;51.010;13.792;2023-06-22T10:28:54;9.40;;;8.40;;
75603;SDS011;64187;51.010;13.792;2023-06-22T10:34:13;9.52;;;8.57;;
75603;SDS011;64187;51.010;13.792;2023-06-22T10:39:11;9.07;;;8.23;;
75603;SDS011;64187;51.010;13.792;2023-06-22T10:44:11;8.95;;;8.15;;
75603;SDS011;64187;51.010;13.792;2023-06-22T10:49:10;9.25;;;8.35;;
75603;SDS011;64187;51.010;13.792;2023-06-22T10:54:09;8.70;;;7.80;;
75603;SDS011;64187;51.010;13.792;2023-06-22T10:59:08;10.35;;;9.07;;
75603;SDS011;64187;51.010;13.792;2023-06-22T11:04:07;8.88;;;7.95;;
75603;SDS011;64187;51.010;13.792;2023-06-22T11:09:06;10.27;;;8.40;;
75603;SDS011;64187;51.010;13.792;2023-06-22T11:14:09;9.55;;;8.45;;
75603;SDS011;64187;51.010;13.792;2023-06-22T11:19:08;9.43;;;8.65;;
75603;SDS011;64187;51.010;13.792;2023-06-22T11:24:07;9.48;;;8.40;;
75603;SDS011;64187;51.010;13.792;2023-06-22T11:29:06;9.38;;;8.27;;
75603;SDS011;64187;51.010;13.792;2023-06-22T11:34:11;8.45;;;7.65;;
75603;SDS011;64187;51.010;13.792;2023-06-22T11:39:10;9.95;;;8.57;;
75603;SDS011;64187;51.010;13.792;2023-06-22T11:44:10;9.15;;;8.25;;
75603;SDS011;64187;51.010;13.792;2023-06-22T11:49:09;11.65;;;9.18;;
75603;SDS011;64187;51.010;13.792;2023-06-22T11:54:08;9.95;;;9.00;;
75603;SDS011;64187;51.010;13.792;2023-06-22T11:59:07;8.88;;;8.02;;
75603;SDS011;64187;51.010;13.792;2023-06-22T12:04:06;9.23;;;8.32;;
75603;SDS011;64187;51.010;13.792;2023-06-22T12:09:05;9.18;;;8.23;;
75603;SDS011;64187;51.010;13.792;2023-06-22T12:14:04;9.25;;;8.23;;
75603;SDS011;64187;51.010;13.792;2023-06-22T12:19:03;9.27;;;8.40;;
75603;SDS011;64187;51.010;13.792;2023-06-22T12:24:02;9.05;;;8.15;;
75603;SDS011;64187;51.010;13.792;2023-06-22T12:29:01;9.32;;;8.48;;
75603;SDS011;64187;51.010;13.792;2023-06-22T12:34:00;9.00;;;8.20;;
75603;SDS011;64187;51.010;13.792;2023-06-22T12:38:59;11.02;;;8.38;;
75603;SDS011;64187;51.010;13.792;2023-06-22T12:43:58;10.27;;;9.18;;
75603;SDS011;64187;51.010;13.792;2023-06-22T12:48:57;9.40;;;8.50;;
75603;SDS011;64187;51.010;13.792;2023-06-22T12:53:56;9.18;;;8.27;;
75603;SDS011;64187;51.010;13.792;2023-06-22T12:58:55;9.43;;;8.25;;
75603;SDS011;64187;51.010;13.792;2023-06-22T13:03:56;9.20;;;8.30;;
75603;SDS011;64187;51.010;13.792;2023-06-22T13:08:55;9.18;;;8.27;;
75603;SDS011;64187;51.010;13.792;2023-06-22T13:14:14;9.25;;;8.35;;
75603;SDS011;64187;51.010;13.792;2023-06-22T13:19:14;9.45;;;8.50;;
75603;SDS011;64187;51.010;13.792;2023-06-22T13:24:14;8.20;;;7.40;;
75603;SDS011;64187;51.010;13.792;2023-06-22T13:29:12;9.40;;;8.55;;
75603;SDS011;64187;51.010;13.792;2023-06-22T13:34:12;8.63;;;7.68;;
75603;SDS011;64187;51.010;13.792;2023-06-22T13:39:10;9.70;;;8.30;;
75603;SDS011;64187;51.010;13.792;2023-06-22T13:44:10;9.13;;;8.32;;
75603;SDS011;64187;51.010;13.792;2023-06-22T13:49:09;10.07;;;8.25;;
75603;SDS011;64187;51.010;13.792;2023-06-22T13:54:09;8.85;;;7.93;;
75603;SDS011;64187;51.010;13.792;2023-06-22T13:59:26;8.35;;;7.55;;
75603;SDS011;64187;51.010;13.792;2023-06-22T14:04:26;8.85;;;8.00;;
75603;SDS011;64187;51.010;13.792;2023-06-22T14:09:27;9.95;;;9.13;;
75603;SDS011;64187;51.010;13.792;2023-06-22T14:14:26;8.50;;;7.45;;
75603;SDS011;64187;51.010;13.792;2023-06-22T14:19:25;9.15;;;8.23;;
75603;SDS011;64187;51.010;13.792;2023-06-22T14:24:24;10.07;;;8.95;;
75603;SDS011;64187;51.010;13.792;2023-06-22T14:29:26;8.68;;;7.60;;
75603;SDS011;64187;51.010;13.792;2023-06-22T14:34:25;11.40;;;8.30;;
75603;SDS011;64187;51.010;13.792;2023-06-22T14:39:24;9.23;;;8.32;;
75603;SDS011;64187;51.010;13.792;2023-06-22T14:44:23;9.43;;;7.90;;
75603;SDS011;64187;51.010;13.792;2023-06-22T14:49:23;9.07;;;8.18;;
75603;SDS011;64187;51.010;13.792;2023-06-22T14:54:22;8.77;;;7.88;;
75603;SDS011;64187;51.010;13.792;2023-06-22T14:59:21;9.35;;;8.10;;
75603;SDS011;64187;51.010;13.792;2023-06-22T15:04:20;9.35;;;8.45;;
75603;SDS011;64187;51.010;13.792;2023-06-22T15:09:19;9.30;;;8.40;;
75603;SDS011;64187;51.010;13.792;2023-06-22T15:14:17;9.70;;;8.52;;
75603;SDS011;64187;51.010;13.792;2023-06-22T15:19:17;8.77;;;7.97;;
75603;SDS011;64187;51.010;13.792;2023-06-22T15:24:15;9.52;;;7.63;;
75603;SDS011;64187;51.010;13.792;2023-06-22T15:29:14;12.25;;;8.95;;
75603;SDS011;64187;51.010;13.792;2023-06-22T15:34:13;9.70;;;8.85;;
75603;SDS011;64187;51.010;13.792;2023-06-22T15:39:12;9.07;;;8.18;;
75603;SDS011;64187;51.010;13.792;2023-06-22T15:44:11;8.75;;;7.82;;
75603;SDS011;64187;51.010;13.792;2023-06-22T15:49:10;8.85;;;7.93;;
75603;SDS011;64187;51.010;13.792;2023-06-22T15:54:09;9.23;;;8.32;;
75603;SDS011;64187;51.010;13.792;2023-06-22T15:59:08;10.43;;;9.38;;
75603;SDS011;64187;51.010;13.792;2023-06-22T16:04:07;10.05;;;8.93;;
75603;SDS011;64187;51.010;13.792;2023-06-22T16:09:06;10.25;;;9.13;;
75603;SDS011;64187;51.010;13.792;2023-06-22T16:14:05;9.25;;;8.35;;
75603;SDS011;64187;51.010;13.792;2023-06-22T16:19:04;11.20;;;10.10;;
75603;SDS011;64187;51.010;13.792;2023-06-22T16:24:03;10.18;;;9.23;;
75603;SDS011;64187;51.010;13.792;2023-06-22T16:29:02;12.90;;;9.60;;
75603;SDS011;64187;51.010;13.792;2023-06-22T16:34:01;11.63;;;10.43;;
75603;SDS011;64187;51.010;13.792;2023-06-22T16:39:01;13.63;;;11.80;;
75603;SDS011;64187;51.010;13.792;2023-06-22T16:44:01;11.25;;;10.25;;
75603;SDS011;64187;51.010;13.792;2023-06-22T16:49:03;10.98;;;9.93;;
75603;SDS011;64187;51.010;13.792;2023-06-22T16:54:02;11.20;;;10.02;;
75603;SDS011;64187;51.010;13.792;2023-06-22T16:59:02;11.63;;;10.45;;
75603;SDS011;64187;51.010;13.792;2023-06-22T17:04:08;10.63;;;9.65;;
75603;SDS011;64187;51.010;13.792;2023-06-22T17:09:13;11.05;;;9.93;;
75603;SDS011;64187;51.010;13.792;2023-06-22T17:14:12;11.50;;;10.48;;
75603;SDS011;64187;51.010;13.792;2023-06-22T17:19:11;11.32;;;10.13;;
75603;SDS011;64187;51.010;13.792;2023-06-22T17:24:12;10.88;;;9.82;;
75603;SDS011;64187;51.010;13.792;2023-06-22T17:29:15;11.85;;;10.23;;
75603;SDS011;64187;51.010;13.792;2023-06-22T17:34:15;10.40;;;9.32;;
75603;SDS011;64187;51.010;13.792;2023-06-22T17:39:17;11.63;;;10.43;;
75603;SDS011;64187;51.010;13.792;2023-06-22T17:44:18;11.90;;;10.90;;
75603;SDS011;64187;51.010;13.792;2023-06-22T17:49:18;12.02;;;10.38;;
75603;SDS011;64187;51.010;13.792;2023-06-22T17:54:16;11.73;;;10.57;;
75603;SDS011;64187;51.010;13.792;2023-06-22T17:59:18;11.18;;;10.07;;
75603;SDS011;64187;51.010;13.792;2023-06-22T18:04:18;12.02;;;10.73;;
75603;SDS011;64187;51.010;13.792;2023-06-22T18:09:18;11.68;;;9.73;;
75603;SDS011;64187;51.010;13.792;2023-06-22T18:14:17;11.93;;;10.73;;
75603;SDS011;64187;51.010;13.792;2023-06-22T18:19:17;12.50;;;11.15;;
75603;SDS011;64187;51.010;13.792;2023-06-22T18:24:18;11.95;;;10.68;;
75603;SDS011;64187;51.010;13.792;2023-06-22T18:29:18;13.00;;;10.65;;
75603;SDS011;64187;51.010;13.792;2023-06-22T18:34:17;11.82;;;10.63;;
75603;SDS011;64187;51.010;13.792;2023-06-22T18:39:17;13.07;;;11.80;;
75603;SDS011;64187;51.010;13.792;2023-06-22T18:49:17;13.50;;;10.15;;
75603;SDS011;64187;51.010;13.792;2023-06-22T18:54:19;11.32;;;10.13;;
75603;SDS011;64187;51.010;13.792;2023-06-22T18:59:39;14.85;;;11.55;;
75603;SDS011;64187;51.010;13.792;2023-06-22T19:04:44;14.07;;;10.82;;
75603;SDS011;64187;51.010;13.792;2023-06-22T19:09:47;12.10;;;10.57;;
75603;SDS011;64187;51.010;13.792;2023-06-22T19:15:29;12.90;;;11.48;;
75603;SDS011;64187;51.010;13.792;2023-06-22T19:20:32;12.60;;;11.40;;
75603;SDS011;64187;51.010;13.792;2023-06-22T19:30:33;16.23;;;11.68;;
75603;SDS011;64187;51.010;13.792;2023-06-22T19:35:32;13.80;;;11.18;;
75603;SDS011;64187;51.010;13.792;2023-06-22T19:40:31;13.27;;;11.82;;
75603;SDS011;64187;51.010;13.792;2023-06-22T19:45:30;12.75;;;11.30;;
75603;SDS011;64187;51.010;13.792;2023-06-22T19:50:33;13.82;;;11.63;;
75603;SDS011;64187;51.010;13.792;2023-06-22T19:55:33;14.43;;;12.10;;
75603;SDS011;64187;51.010;13.792;2023-06-22T20:00:32;13.40;;;11.88;;
75603;SDS011;64187;51.010;13.792;2023-06-22T20:05:33;12.88;;;11.68;;
75603;SDS011;64187;51.010;13.792;2023-06-22T20:10:39;13.80;;;11.52;;
75603;SDS011;64187;51.010;13.792;2023-06-22T20:15:39;11.70;;;10.50;;
75603;SDS011;64187;51.010;13.792;2023-06-22T20:20:44;12.98;;;11.52;;
75603;SDS011;64187;51.010;13.792;2023-06-22T20:25:45;15.68;;;11.32;;
75603;SDS011;64187;51.010;13.792;2023-06-22T20:36:08;12.65;;;10.55;;
75603;SDS011;64187;51.010;13.792;2023-06-22T20:41:09;12.68;;;11.32;;
75603;SDS011;64187;51.010;13.792;2023-06-22T20:46:07;13.35;;;12.00;;
75603;SDS011;64187;51.010;13.792;2023-06-22T20:51:06;12.45;;;11.10;;
75603;SDS011;64187;51.010;13.792;2023-06-22T20:56:05;12.45;;;11.05;;
75603;SDS011;64187;51.010;13.792;2023-06-22T21:01:04;12.68;;;10.98;;
75603;SDS011;64187;51.010;13.792;2023-06-22T21:06:03;14.20;;;11.48;;
75603;SDS011;64187;51.010;13.792;2023-06-22T21:11:02;14.38;;;11.75;;
75603;SDS011;64187;51.010;13.792;2023-06-22T21:16:01;13.50;;;12.10;;
75603;SDS011;64187;51.010;13.792;2023-06-22T21:21:00;13.50;;;11.85;;
75603;SDS011;64187;51.010;13.792;2023-06-22T21:25:59;13.02;;;11.52;;
75603;SDS011;64187;51.010;13.792;2023-06-22T21:30:58;15.20;;;11.73;;
75603;SDS011;64187;51.010;13.792;2023-06-22T21:35:57;16.38;;;11.85;;
75603;SDS011;64187;51.010;13.792;2023-06-22T21:40:56;13.55;;;11.77;;
75603;SDS011;64187;51.010;13.792;2023-06-22T21:45:55;16.08;;;13.07;;
75603;SDS011;64187;51.010;13.792;2023-06-22T21:50:54;15.85;;;12.88;;
75603;SDS011;64187;51.010;13.792;2023-06-22T21:55:53;18.30;;;13.75;;
75603;SDS011;64187;51.010;13.792;2023-06-22T22:00:51;13.68;;;12.15;;
75603;SDS011;64187;51.010;13.792;2023-06-22T22:05:53;16.17;;;12.40;;
75603;SDS011;64187;51.010;13.792;2023-06-22T22:10:53;18.42;;;14.00;;
75603;SDS011;64187;51.010;13.792;2023-06-22T22:15:52;17.10;;;13.90;;
75603;SDS011;64187;51.010;13.792;2023-06-22T22:20:51;16.17;;;13.50;;
75603;SDS011;64187;51.010;13.792;2023-06-22T22:25:50;16.67;;;13.90;;
75603;SDS011;64187;51.010;13.792;2023-06-22T22:30:49;16.80;;;13.85;;
75603;SDS011;64187;51.010;13.792;2023-06-22T22:35:49;18.75;;;15.82;;
75603;SDS011;64187;51.010;13.792;2023-06-22T22:40:48;18.70;;;14.93;;
75603;SDS011;64187;51.010;13.792;2023-06-22T22:45:47;19.50;;;15.85;;
75603;SDS011;64187;51.010;13.792;2023-06-22T22:50:45;17.73;;;14.88;;
75603;SDS011;64187;51.010;13.792;2023-06-22T22:55:45;20.80;;;16.65;;
75603;SDS011;64187;51.010;13.792;2023-06-22T23:00:44;23.30;;;16.85;;
75603;SDS011;64187;51.010;13.792;2023-06-22T23:05:43;24.90;;;17.05;;
75603;SDS011;64187;51.010;13.792;2023-06-22T23:10:42;21.65;;;16.63;;
75603;SDS011;64187;51.010;13.792;2023-06-22T23:15:41;12.10;;;8.50;;
75603;SDS011;64187;51.010;13.792;2023-06-22T23:20:41;8.77;;;4.63;;
75603;SDS011;64187;51.010;13.792;2023-06-22T23:25:40;4.88;;;2.63;;
75603;SDS011;64187;51.010;13.792;2023-06-22T23:30:38;3.70;;;1.85;;
75603;SDS011;64187;51.010;13.792;2023-06-22T23:35:37;1.90;;;1.23;;
75603;SDS011;64187;51.010;13.792;2023-06-22T23:40:39;3.15;;;1.08;;
75603;SDS011;64187;51.010;13.792;2023-06-22T23:45:38;1.60;;;0.80;;
75603;SDS011;64187;51.010;13.792;2023-06-22T23:50:38;1.85;;;0.70;;
75603;SDS011;64187;51.010;13.792;2023-06-22T23:55:38;1.77;;;0.50;;
